Time;durP1;ratioP1;P1;durP2;ratioP2;P2;SDS_P1;SDS_P2;PMS_P1;PMS_P2;Temp;Humidity;BMP_temperature;BMP_pressure;BME280_temperature;BME280_humidity;BME280_pressure;Samples;Min_cycle;Max_cycle;Signal;HPM_P1;HPM_P2
2021/01/30 00:00:32;;;;;;;6.67;5.17;;;;;;;-0.59;87.22;98956.03;5016287;28;20211;-78
2021/01/30 00:02:58;;;;;;;6.03;5.47;;;;;;;-0.60;87.17;98961.31;5042853;22;20246;-64
2021/01/30 00:05:25;;;;;;;7.00;5.60;;;;;;;-0.61;87.30;98967.47;5015284;28;20257;-64
2021/01/30 00:07:51;;;;;;;6.50;5.80;;;;;;;-0.62;87.53;98977.06;5006773;28;20203;-64
2021/01/30 00:10:18;;;;;;;7.40;5.63;;;;;;;-0.62;87.06;98978.84;5002184;28;20627;-64
2021/01/30 00:12:44;;;;;;;7.77;5.37;;;;;;;-0.66;87.24;98975.50;5008373;28;20678;-67
2021/01/30 00:15:14;;;;;;;7.40;5.57;;;;;;;-0.68;87.55;98979.97;5045768;22;20692;-68
2021/01/30 00:17:40;;;;;;;7.33;5.47;;;;;;;-0.72;87.22;98987.06;5048158;28;20267;-68
2021/01/30 00:20:08;;;;;;;7.57;5.93;;;;;;;-0.76;87.14;98982.94;5038644;28;20213;-68
2021/01/30 00:22:34;;;;;;;7.60;5.93;;;;;;;-0.75;86.94;98989.00;5042223;28;20202;-68
2021/01/30 00:25:00;;;;;;;6.60;5.40;;;;;;;-0.77;86.80;98996.91;5045107;28;20261;-67
2021/01/30 00:27:26;;;;;;;7.90;6.80;;;;;;;-0.78;87.27;98999.59;5037993;28;20276;-68
2021/01/30 00:29:52;;;;;;;7.60;5.97;;;;;;;-0.79;87.12;99006.59;5039815;28;20213;-68
2021/01/30 00:32:21;;;;;;;8.47;6.57;;;;;;;-0.80;87.25;99012.72;5038274;28;20682;-68
2021/01/30 00:34:48;;;;;;;8.53;6.50;;;;;;;-0.84;86.86;99029.44;5035430;28;20245;-68
2021/01/30 00:37:17;;;;;;;8.00;6.77;;;;;;;-0.84;87.31;99032.06;5041161;28;20218;-69
2021/01/30 00:39:44;;;;;;;7.40;6.23;;;;;;;-0.83;87.15;99054.66;5041957;28;20209;-69
2021/01/30 00:42:12;;;;;;;8.53;6.23;;;;;;;-0.82;86.92;99056.38;5039085;28;20678;-68
2021/01/30 00:44:38;;;;;;;7.10;5.57;;;;;;;-0.84;86.76;99057.34;5038764;28;20226;-69
2021/01/30 00:47:06;;;;;;;8.10;6.87;;;;;;;-0.85;86.63;99072.16;5035674;28;20737;-69
2021/01/30 00:49:33;;;;;;;7.43;5.97;;;;;;;-0.87;87.02;99081.84;5036036;28;20198;-68
2021/01/30 00:51:59;;;;;;;7.27;5.43;;;;;;;-0.88;87.21;99092.34;5040341;28;20289;-69
2021/01/30 00:54:25;;;;;;;8.17;5.67;;;;;;;-0.90;86.91;99099.44;5039068;28;20206;-68
2021/01/30 00:56:52;;;;;;;7.60;5.87;;;;;;;-0.91;86.82;99106.44;5030663;28;20278;-69
2021/01/30 00:59:19;;;;;;;7.40;5.37;;;;;;;-0.93;86.92;99118.69;5040218;28;20209;-69
2021/01/30 01:01:46;;;;;;;7.83;5.83;;;;;;;-0.95;86.73;99133.59;5036342;28;20209;-69
2021/01/30 01:04:12;;;;;;;8.43;6.13;;;;;;;-0.97;87.09;99140.63;5041450;28;20304;-69
2021/01/30 01:06:39;;;;;;;6.30;4.90;;;;;;;-0.98;86.85;99144.16;5036403;28;20218;-68
2021/01/30 01:09:07;;;;;;;7.50;5.13;;;;;;;-0.98;86.89;99144.16;5042431;28;20247;-69
2021/01/30 01:11:34;;;;;;;7.47;5.23;;;;;;;-1.00;86.96;99148.59;5039100;28;20620;-68
2021/01/30 01:14:00;;;;;;;7.10;5.40;;;;;;;-1.00;86.61;99148.59;5041871;28;20271;-69
2021/01/30 01:16:26;;;;;;;6.13;4.33;;;;;;;-1.00;86.86;99150.34;5038369;28;20237;-69
2021/01/30 01:18:52;;;;;;;6.57;5.20;;;;;;;-1.00;86.93;99150.34;5035935;28;20210;-69
2021/01/30 01:21:18;;;;;;;7.80;4.70;;;;;;;-1.00;86.64;99166.03;5035659;28;20625;-69
2021/01/30 01:23:46;;;;;;;7.83;5.60;;;;;;;-1.00;86.75;99169.50;5033026;28;20197;-69
2021/01/30 01:26:14;;;;;;;7.10;5.00;;;;;;;-0.99;86.89;99178.19;5034469;28;20233;-69
2021/01/30 01:28:40;;;;;;;8.77;5.40;;;;;;;-1.00;86.87;99182.56;5036852;28;20203;-68
2021/01/30 01:31:07;;;;;;;6.93;5.03;;;;;;;-0.99;86.72;99189.50;5039961;28;20737;-69
2021/01/30 01:33:33;;;;;;;5.50;4.73;;;;;;;-1.00;86.58;99190.41;5028939;28;20198;-69
2021/01/30 01:36:00;;;;;;;6.50;4.83;;;;;;;-1.01;86.70;99196.53;5031443;28;20488;-69
2021/01/30 01:38:27;;;;;;;6.57;4.77;;;;;;;-1.02;86.63;99197.44;5031891;28;20224;-69
2021/01/30 01:40:54;;;;;;;8.47;5.20;;;;;;;-1.01;86.81;99208.75;5037817;28;20223;-70
2021/01/30 01:43:23;;;;;;;6.03;4.50;;;;;;;-1.01;86.85;99206.13;5040168;28;20694;-69
2021/01/30 01:45:59;;;;;;;6.90;4.93;;;;;;;-1.02;86.75;99220.09;5032276;28;20233;-70
2021/01/30 01:48:30;;;;;;;7.87;4.90;;;;;;;-1.03;86.74;99229.72;5038225;28;20213;-69
2021/01/30 01:50:57;;;;;;;6.23;4.43;;;;;;;-1.03;86.81;99237.56;5032261;28;20652;-70
2021/01/30 01:53:27;;;;;;;7.43;4.50;;;;;;;-1.04;86.63;99233.22;5029435;28;20590;-67
2021/01/30 01:55:59;;;;;;;5.20;4.30;;;;;;;-1.03;86.47;99240.16;5026834;28;20238;-69
2021/01/30 01:58:27;;;;;;;6.80;5.00;;;;;;;-1.02;86.62;99238.41;5042308;28;20571;-69
2021/01/30 02:00:54;;;;;;;5.67;4.07;;;;;;;-1.01;86.68;99242.72;5037448;28;20209;-68
2021/01/30 02:03:20;;;;;;;6.93;4.10;;;;;;;-1.03;86.57;99248.00;5046504;28;20213;-69
2021/01/30 02:05:47;;;;;;;4.87;3.97;;;;;;;-1.05;86.32;99257.66;5042797;28;20222;-69
2021/01/30 02:08:16;;;;;;;6.27;3.90;;;;;;;-1.05;86.33;99263.72;5040829;28;20280;-69
2021/01/30 02:10:45;;;;;;;5.97;4.10;;;;;;;-1.06;86.66;99256.81;5037317;28;20214;-69
2021/01/30 02:13:15;;;;;;;5.33;4.30;;;;;;;-1.05;86.70;99270.72;5046053;28;20673;-69
2021/01/30 02:15:43;;;;;;;5.70;4.23;;;;;;;-1.05;86.59;99262.88;5041692;28;20614;-69
2021/01/30 02:18:24;;;;;;;5.80;4.67;;;;;;;-1.07;86.50;99269.91;5037691;28;20228;-69
2021/01/30 02:21:21;;;;;;;5.47;4.00;;;;;;;-1.07;86.49;99285.59;5041666;28;20221;-68
2021/01/30 02:24:23;;;;;;;8.83;4.40;;;;;;;-1.06;86.60;99287.31;5039239;28;20198;-70
2021/01/30 02:27:24;;;;;;;5.83;4.70;;;;;;;-1.06;86.77;99292.53;5035760;28;20202;-69
2021/01/30 02:30:13;;;;;;;7.37;4.60;;;;;;;-1.06;86.31;99302.97;5031048;28;20208;-70
2021/01/30 02:32:55;;;;;;;5.07;4.37;;;;;;;-1.08;86.58;99304.81;5043233;28;20207;-70
2021/01/30 02:35:41;;;;;;;5.93;4.80;;;;;;;-1.09;86.44;99306.59;5031742;28;20235;-68
2021/01/30 02:38:13;;;;;;;5.20;3.90;;;;;;;-1.11;86.33;99310.16;5038018;28;20236;-70
2021/01/30 02:40:43;;;;;;;5.50;4.07;;;;;;;-1.12;86.71;99318.91;5037277;28;20213;-69
2021/01/30 02:43:12;;;;;;;6.60;4.13;;;;;;;-1.12;86.57;99327.59;5046031;28;20216;-70
2021/01/30 02:45:45;;;;;;;5.80;3.07;;;;;;;-1.13;86.37;99330.25;5030676;28;20227;-70
2021/01/30 02:48:16;;;;;;;4.63;3.97;;;;;;;-1.13;86.45;99335.50;5044999;28;20671;-69
2021/01/30 02:50:45;;;;;;;4.83;3.43;;;;;;;-1.15;86.29;99337.31;5037587;28;20214;-69
2021/01/30 02:53:14;;;;;;;5.10;3.57;;;;;;;-1.15;86.49;99334.69;5032152;28;20275;-69
2021/01/30 02:55:42;;;;;;;5.07;3.57;;;;;;;-1.17;86.72;99344.34;5044084;28;20230;-69
2021/01/30 02:58:09;;;;;;;3.47;2.90;;;;;;;-1.21;86.47;99346.22;5039822;28;20206;-70
2021/01/30 03:00:36;;;;;;;5.67;4.03;;;;;;;-1.21;86.70;99348.81;5040800;28;20214;-69
2021/01/30 03:03:03;;;;;;;5.70;3.53;;;;;;;-1.22;86.60;99347.13;5037015;28;20206;-70
2021/01/30 03:05:29;;;;;;;4.30;3.27;;;;;;;-1.22;86.35;99349.72;5039143;28;20233;-69
2021/01/30 03:08:06;;;;;;;5.07;3.40;;;;;;;-1.24;86.50;99363.75;5037538;28;20209;-69
2021/01/30 03:10:38;;;;;;;4.20;3.50;;;;;;;-1.24;86.67;99361.97;5035347;28;20348;-70
2021/01/30 03:13:11;;;;;;;4.57;3.07;;;;;;;-1.24;86.70;99361.13;5043448;28;20617;-70
2021/01/30 03:15:42;;;;;;;5.10;4.20;;;;;;;-1.24;86.33;99359.38;5038474;28;20230;-69
2021/01/30 03:18:11;;;;;;;5.73;3.20;;;;;;;-1.22;86.54;99370.63;5039867;28;20210;-70
2021/01/30 03:20:41;;;;;;;5.03;3.90;;;;;;;-1.21;86.47;99368.88;5041293;28;20210;-69
2021/01/30 03:23:08;;;;;;;5.87;3.87;;;;;;;-1.20;86.65;99386.25;5038920;28;20209;-69
2021/01/30 03:25:39;;;;;;;4.57;4.00;;;;;;;-1.20;86.25;99388.84;5040759;28;20245;-70
2021/01/30 03:28:05;;;;;;;4.63;3.83;;;;;;;-1.20;86.14;99391.47;5039770;28;20210;-70
2021/01/30 03:30:32;;;;;;;5.97;4.27;;;;;;;-1.19;85.86;99391.41;5041905;28;20201;-69
2021/01/30 03:32:59;;;;;;;6.50;4.03;;;;;;;-1.19;86.36;99388.81;5034561;28;20206;-70
2021/01/30 03:35:25;;;;;;;5.17;4.17;;;;;;;-1.18;86.15;99407.94;5045089;28;20229;-69
2021/01/30 03:37:51;;;;;;;4.53;3.40;;;;;;;-1.20;86.24;99413.22;5033214;28;20197;-70
2021/01/30 03:40:19;;;;;;;5.70;4.23;;;;;;;-1.19;86.13;99406.22;5036683;28;20220;-70
2021/01/30 03:42:46;;;;;;;5.03;3.97;;;;;;;-1.20;86.18;99418.44;5041784;28;20259;-68
2021/01/30 03:45:15;;;;;;;6.60;4.77;;;;;;;-1.22;86.35;99422.00;5032587;28;20683;-68
2021/01/30 03:47:41;;;;;;;6.03;4.10;;;;;;;-1.24;86.06;99423.81;5043664;28;20264;-69
2021/01/30 03:50:09;;;;;;;5.20;4.13;;;;;;;-1.24;86.33;99432.50;5035965;28;20210;-70
2021/01/30 03:52:35;;;;;;;6.20;4.03;;;;;;;-1.23;86.03;99435.97;5043583;28;20206;-69
2021/01/30 03:55:02;;;;;;;8.13;4.70;;;;;;;-1.24;86.15;99437.75;5039129;28;20230;-70
2021/01/30 03:57:28;;;;;;;5.97;4.27;;;;;;;-1.23;85.71;99441.19;5028452;28;20238;-70
2021/01/30 03:59:55;;;;;;;7.40;4.67;;;;;;;-1.21;85.77;99444.63;5037175;28;20683;-69
2021/01/30 04:02:21;;;;;;;6.33;4.80;;;;;;;-1.22;85.80;99448.13;5033132;28;20209;-70
2021/01/30 04:04:47;;;;;;;6.10;4.70;;;;;;;-1.21;86.00;99452.44;5035369;28;20226;-70
2021/01/30 04:07:14;;;;;;;6.70;4.93;;;;;;;-1.21;85.86;99444.63;5040438;28;20206;-70
2021/01/30 04:09:40;;;;;;;7.50;5.23;;;;;;;-1.20;85.71;99454.16;5033197;28;20213;-69
2021/01/30 04:12:07;;;;;;;7.03;4.73;;;;;;;-1.20;85.91;99449.78;5042814;28;20221;-70
2021/01/30 04:14:34;;;;;;;9.83;5.53;;;;;;;-1.20;85.63;99465.47;5041288;28;20202;-70
2021/01/30 04:17:01;;;;;;;7.20;5.30;;;;;;;-1.19;85.87;99458.47;5040839;28;20236;-68
2021/01/30 04:19:27;;;;;;;6.67;4.90;;;;;;;-1.19;85.84;99463.72;5039767;28;20213;-69
2021/01/30 04:21:53;;;;;;;6.43;4.50;;;;;;;-1.20;85.75;99468.06;5041613;28;20213;-69
2021/01/30 04:24:19;;;;;;;8.33;5.83;;;;;;;-1.20;85.72;99472.44;5041900;28;20202;-70
2021/01/30 04:26:47;;;;;;;9.17;5.13;;;;;;;-1.20;85.53;99486.38;5041144;28;20267;-69
2021/01/30 04:29:13;;;;;;;7.77;5.10;;;;;;;-1.21;85.70;99495.09;5041519;28;20688;-69
2021/01/30 04:31:39;;;;;;;7.40;5.37;;;;;;;-1.20;85.40;99499.44;5035112;28;20208;-69
2021/01/30 04:34:06;;;;;;;7.87;5.90;;;;;;;-1.21;85.60;99502.94;5047211;28;20206;-69
2021/01/30 04:36:32;;;;;;;10.77;6.50;;;;;;;-1.19;85.70;99500.28;5034706;28;20252;-69
2021/01/30 04:38:59;;;;;;;7.80;5.50;;;;;;;-1.20;85.68;99502.03;5040197;28;20202;-70
2021/01/30 04:41:38;;;;;;;7.87;6.00;;;;;;;-1.18;85.71;99499.38;5042271;28;20679;-70
2021/01/30 04:44:09;;;;;;;8.50;5.57;;;;;;;-1.17;85.88;99504.56;5035774;28;20202;-70
2021/01/30 04:46:46;;;;;;;9.07;6.57;;;;;;;-1.15;85.65;99509.72;5037062;28;20225;-70
2021/01/30 04:49:22;;;;;;;7.67;5.70;;;;;;;-1.15;85.39;99500.13;5039907;28;20210;-69
2021/01/30 04:51:55;;;;;;;8.87;5.87;;;;;;;-1.14;85.42;99508.81;5026471;28;20201;-69
2021/01/30 04:54:44;;;;;;;9.23;6.27;;;;;;;-1.13;85.31;99510.53;5034359;28;20680;-69
2021/01/30 04:57:29;;;;;;;9.40;6.63;;;;;;;-1.11;85.73;99514.81;5033675;28;20714;-70
2021/01/30 05:00:08;;;;;;;10.33;7.13;;;;;;;-1.10;85.54;99523.50;5036821;28;20205;-69
2021/01/30 05:02:44;;;;;;;11.57;6.70;;;;;;;-1.09;85.53;99522.59;5038354;28;20289;-69
2021/01/30 05:05:15;;;;;;;14.83;7.70;;;;;;;-1.08;85.55;99532.16;5034653;28;20236;-69
2021/01/30 05:07:45;;;;;;;10.93;7.00;;;;;;;-1.09;85.46;99528.69;5041538;28;20210;-70
2021/01/30 05:10:17;;;;;;;10.07;7.00;;;;;;;-1.09;85.40;99530.44;5038006;28;20572;-67
2021/01/30 05:12:48;;;;;;;11.67;7.60;;;;;;;-1.08;85.37;99539.97;5039804;28;20217;-69
2021/01/30 05:15:21;;;;;;;10.77;7.60;;;;;;;-1.08;85.20;99530.38;5040291;28;20244;-70
2021/01/30 05:17:55;;;;;;;10.90;7.67;;;;;;;-1.07;85.27;99531.22;5042357;28;20205;-70
2021/01/30 05:20:23;;;;;;;12.17;8.50;;;;;;;-1.07;85.65;99534.66;5037700;28;20271;-69
2021/01/30 05:22:50;;;;;;;11.33;8.03;;;;;;;-1.04;85.20;99531.09;5030904;28;20208;-70
2021/01/30 05:25:19;;;;;;;11.53;8.50;;;;;;;-1.04;85.23;99538.94;5042148;28;20299;-69
2021/01/30 05:28:05;;;;;;;11.10;8.47;;;;;;;-1.03;85.37;99532.81;5037044;28;20205;-70
2021/01/30 05:30:41;;;;;;;13.07;8.07;;;;;;;-1.02;85.16;99534.53;5040284;28;20253;-70
2021/01/30 05:33:26;;;;;;;13.40;8.03;;;;;;;-1.01;85.32;99536.25;5033313;28;20217;-70
2021/01/30 05:35:58;;;;;;;12.57;7.63;;;;;;;-1.00;85.07;99543.16;5029587;28;20677;-70
2021/01/30 05:38:50;;;;;;;11.33;8.10;;;;;;;-0.97;85.13;99544.84;5029891;28;20225;-67
2021/01/30 05:41:27;;;;;;;12.17;8.00;;;;;;;-0.96;84.97;99549.16;5034745;28;20207;-69
2021/01/30 05:44:01;;;;;;;11.53;7.70;;;;;;;-0.96;85.33;99555.22;5023003;28;20713;-70
2021/01/30 05:46:31;;;;;;;13.60;7.90;;;;;;;-0.95;85.58;99554.34;5038623;28;20607;-69
2021/01/30 05:49:02;;;;;;;13.27;8.63;;;;;;;-0.93;85.40;99552.53;5035297;28;20684;-69
2021/01/30 05:51:34;;;;;;;14.87;8.50;;;;;;;-0.91;85.21;99555.94;5035522;28;20221;-69
2021/01/30 05:54:01;;;;;;;9.47;7.07;;;;;;;-0.90;85.51;99559.41;5033026;28;20590;-69
2021/01/30 05:56:27;;;;;;;13.33;7.67;;;;;;;-0.89;85.35;99569.78;5028897;28;20269;-69
2021/01/30 05:58:54;;;;;;;10.80;7.57;;;;;;;-0.89;85.15;99572.41;5034760;28;20201;-69
2021/01/30 06:01:24;;;;;;;9.90;6.70;;;;;;;-0.88;85.29;99566.25;5032328;28;20268;-70
2021/01/30 06:03:59;;;;;;;11.73;8.20;;;;;;;-0.87;85.42;99570.59;5029904;28;20206;-69
2021/01/30 06:06:29;;;;;;;11.77;8.13;;;;;;;-0.86;85.07;99576.66;5035274;28;20218;-69
2021/01/30 06:08:59;;;;;;;12.47;8.20;;;;;;;-0.85;85.11;99583.59;5036955;28;20294;-69
2021/01/30 06:11:26;;;;;;;12.43;7.47;;;;;;;-0.85;85.18;99581.84;5036341;28;20217;-69
2021/01/30 06:13:54;;;;;;;11.33;7.90;;;;;;;-0.84;85.09;99595.78;5033146;28;20214;-70
2021/01/30 06:16:38;;;;;;;12.77;7.87;;;;;;;-0.83;85.03;99603.56;5056489;22;20233;-80
2021/01/30 06:19:14;;;;;;;12.33;8.70;;;;;;;-0.82;85.60;99600.03;5050584;28;20197;-80
2021/01/30 06:21:40;;;;;;;13.30;8.90;;;;;;;-0.82;85.14;99602.66;5060099;28;20618;-79
2021/01/30 06:24:09;;;;;;;13.23;8.87;;;;;;;-0.80;84.96;99618.31;5061405;28;20213;-80
2021/01/30 06:26:42;;;;;;;12.70;9.23;;;;;;;-0.78;84.72;99622.56;5056602;28;20194;-80
2021/01/30 06:29:31;;;;;;;14.00;9.10;;;;;;;-0.77;85.45;99619.06;5048314;28;20190;-80
2021/01/30 06:32:07;;;;;;;12.40;7.93;;;;;;;-0.75;85.13;99608.56;5044893;28;20231;-80
2021/01/30 06:34:36;;;;;;;13.37;8.87;;;;;;;-0.75;84.89;99614.63;5047544;28;20661;-79
2021/01/30 06:37:07;;;;;;;13.30;9.30;;;;;;;-0.75;85.40;99612.03;5050072;28;20226;-80
2021/01/30 06:39:36;;;;;;;11.70;8.20;;;;;;;-0.75;85.22;99617.25;5057799;28;20706;-79
2021/01/30 06:42:13;;;;;;;13.20;8.77;;;;;;;-0.73;85.01;99614.59;5065112;28;20225;-79
2021/01/30 06:44:39;;;;;;;14.67;9.83;;;;;;;-0.72;85.17;99613.69;5050930;28;20606;-79
2021/01/30 06:47:14;;;;;;;12.73;9.40;;;;;;;-0.72;85.14;99613.69;5053494;28;20229;-80
2021/01/30 06:49:42;;;;;;;13.50;9.03;;;;;;;-0.71;85.32;99617.97;5051013;28;20227;-79
2021/01/30 06:52:13;;;;;;;13.47;9.83;;;;;;;-0.70;84.94;99631.00;5041678;28;20235;-78
2021/01/30 06:54:40;;;;;;;12.57;8.90;;;;;;;-0.70;85.12;99623.16;5055074;28;20248;-78
2021/01/30 06:57:12;;;;;;;11.77;8.40;;;;;;;-0.68;85.21;99619.63;5055295;28;20297;-80
2021/01/30 06:59:50;;;;;;;14.53;9.60;;;;;;;-0.68;85.26;99633.56;5051878;28;20212;-79
2021/01/30 07:02:24;;;;;;;18.03;10.40;;;;;;;-0.68;85.31;99623.09;5048417;28;20225;-79
2021/01/30 07:05:11;;;;;;;14.53;8.80;;;;;;;-0.66;85.15;99636.13;5062253;28;20453;-80
2021/01/30 07:07:48;;;;;;;15.03;9.00;;;;;;;-0.67;85.09;99629.19;5064044;28;20197;-78
2021/01/30 07:10:28;;;;;;;14.50;9.30;;;;;;;-0.67;85.34;99629.19;5050011;28;20209;-78
2021/01/30 07:13:05;;;;;;;13.83;9.70;;;;;;;-0.67;85.09;99630.03;5052933;28;20694;-78
2021/01/30 07:15:33;;;;;;;18.77;12.03;;;;;;;-0.66;85.25;99630.91;5056737;28;20228;-78
2021/01/30 07:18:14;;;;;;;16.30;9.83;;;;;;;-0.66;85.19;99634.38;5056863;28;20286;-77
2021/01/30 07:20:49;;;;;;;14.43;10.20;;;;;;;-0.65;85.05;99638.69;5052206;28;20207;-80
2021/01/30 07:23:25;;;;;;;16.47;9.53;;;;;;;-0.64;85.64;99636.94;5049416;28;20824;-79
2021/01/30 07:26:02;;;;;;;13.53;9.40;;;;;;;-0.63;85.10;99641.25;5046718;28;20201;-80
2021/01/30 07:28:35;;;;;;;14.83;9.70;;;;;;;-0.62;85.15;99635.97;5051523;28;20255;-79
2021/01/30 07:31:08;;;;;;;13.53;9.40;;;;;;;-0.60;85.05;99635.94;5049957;28;20667;-81
2021/01/30 07:33:48;;;;;;;16.07;9.53;;;;;;;-0.58;85.27;99644.59;5047275;28;20320;-78
2021/01/30 07:36:17;;;;;;;15.17;10.27;;;;;;;-0.54;85.39;99646.19;5046408;28;20240;-78
2021/01/30 07:38:52;;;;;;;18.07;10.07;;;;;;;-0.51;85.36;99649.53;5045862;28;20586;-80
2021/01/30 07:41:26;;;;;;;16.23;10.50;;;;;;;-0.50;85.45;99645.16;5046853;28;20209;-78
2021/01/30 07:44:00;;;;;;;18.43;10.77;;;;;;;-0.49;85.13;99642.50;5046819;28;20268;-80
2021/01/30 07:46:31;;;;;;;15.30;10.00;;;;;;;-0.48;85.47;99641.59;5049999;28;20220;-80
2021/01/30 07:49:00;;;;;;;16.90;10.23;;;;;;;-0.46;85.45;99647.63;5045636;28;20198;-78
2021/01/30 07:51:32;;;;;;;18.43;11.57;;;;;;;-0.43;85.13;99659.75;5045830;28;20205;-80
2021/01/30 07:53:59;;;;;;;20.03;12.30;;;;;;;-0.40;85.25;99657.03;5041447;28;20206;-78
2021/01/30 07:56:49;;;;;;;18.17;13.00;;;;;;;-0.37;85.11;99667.38;5052035;28;20229;-80
2021/01/30 07:59:29;;;;;;;18.27;11.87;;;;;;;-0.33;85.24;99660.25;5042760;28;20249;-78
2021/01/30 08:02:37;;;;;;;18.93;12.47;;;;;;;-0.30;85.23;99653.16;5046200;28;20264;-80
2021/01/30 08:05:16;;;;;;;16.17;11.17;;;;;;;-0.27;85.13;99649.59;5047295;28;20304;-78
2021/01/30 08:07:51;;;;;;;16.80;11.00;;;;;;;-0.23;85.33;99645.97;5054089;28;20194;-80
2021/01/30 08:10:25;;;;;;;14.07;10.03;;;;;;;-0.22;85.16;99655.53;5062318;28;20676;-80
2021/01/30 08:13:11;;;;;;;15.73;10.63;;;;;;;-0.22;85.00;99653.78;5049157;28;20250;-80
2021/01/30 08:15:40;;;;;;;19.47;11.10;;;;;;;-0.20;85.20;99659.81;5052321;28;20206;-79
2021/01/30 08:18:16;;;;;;;18.30;12.03;;;;;;;-0.18;85.18;99654.53;5064943;28;20205;-79
2021/01/30 08:20:45;;;;;;;18.73;11.53;;;;;;;-0.17;85.40;99654.44;5057955;28;20216;-78
2021/01/30 08:23:26;;;;;;;20.73;12.40;;;;;;;-0.16;85.28;99652.69;5057303;28;20237;-78
2021/01/30 08:25:55;;;;;;;18.87;11.20;;;;;;;-0.16;85.14;99656.16;5054942;28;20218;-81
2021/01/30 08:28:27;;;;;;;21.47;13.13;;;;;;;-0.15;85.29;99657.84;5051684;28;20206;-79
2021/01/30 08:30:55;;;;;;;17.77;12.80;;;;;;;-0.14;85.01;99659.56;5049013;28;20205;-79
2021/01/30 08:33:22;;;;;;;22.90;13.17;;;;;;;-0.13;85.04;99652.56;5063694;28;20279;-79
2021/01/30 08:35:51;;;;;;;17.00;11.57;;;;;;;-0.12;85.13;99659.50;5051568;28;20201;-79
2021/01/30 08:38:38;;;;;;;18.27;11.83;;;;;;;-0.12;85.26;99655.13;5058545;28;20677;-79
2021/01/30 08:41:39;;;;;;;15.77;10.77;;;;;;;-0.10;85.14;99649.84;5057372;28;20681;-78
2021/01/30 08:44:06;;;;;;;17.40;11.03;;;;;;;-0.10;84.95;99658.56;5056621;28;20802;-79
2021/01/30 08:46:34;;;;;;;14.73;10.23;;;;;;;-0.12;84.71;99660.38;5051060;28;20209;-79
2021/01/30 08:49:10;;;;;;;15.97;9.97;;;;;;;-0.11;85.10;99662.09;5054777;28;20201;-80
2021/01/30 08:51:36;;;;;;;16.23;10.40;;;;;;;-0.10;85.12;99663.78;5050162;28;20197;-79
2021/01/30 08:54:26;;;;;;;14.00;10.37;;;;;;;-0.09;85.22;99672.50;5044976;28;20202;-79
2021/01/30 08:56:52;;;;;;;12.20;8.83;;;;;;;-0.09;85.04;99673.34;5039693;28;20230;-78
2021/01/30 08:59:42;;;;;;;15.90;10.30;;;;;;;-0.08;85.09;99671.59;5046810;28;20202;-79
2021/01/30 09:02:10;;;;;;;15.40;10.10;;;;;;;-0.07;84.99;99674.16;5045125;28;20225;-80
2021/01/30 09:04:47;;;;;;;12.77;8.13;;;;;;;-0.08;84.72;99680.28;5048645;28;20197;-81
2021/01/30 09:07:43;;;;;;;10.93;8.17;;;;;;;-0.10;84.68;99678.63;5048052;28;20198;-79
2021/01/30 09:10:33;;;;;;;10.80;7.53;;;;;;;-0.13;84.65;99682.22;5043780;28;20670;-80
2021/01/30 09:13:01;;;;;;;11.73;8.33;;;;;;;-0.13;84.66;99681.34;5042987;28;20321;-80
2021/01/30 09:15:58;;;;;;;14.67;9.37;;;;;;;-0.13;84.56;99687.44;5044246;28;20214;-80
2021/01/30 09:18:38;;;;;;;13.37;8.33;;;;;;;-0.11;84.53;99688.25;5041938;28;20217;-79
2021/01/30 09:21:11;;;;;;;13.50;9.00;;;;;;;-0.10;84.87;99689.97;5045694;28;20255;-78
2021/01/30 09:23:48;;;;;;;15.37;9.70;;;;;;;-0.10;84.62;99692.59;5043921;28;20226;-78
2021/01/30 09:26:22;;;;;;;13.90;9.23;;;;;;;-0.09;84.74;99696.06;5040629;28;20209;-78
2021/01/30 09:28:55;;;;;;;13.90;9.30;;;;;;;-0.06;84.59;99696.81;5045689;28;20197;-80
2021/01/30 09:31:23;;;;;;;15.27;8.83;;;;;;;-0.05;84.36;99693.28;5041884;28;20202;-78
2021/01/30 09:34:01;;;;;;;13.23;8.83;;;;;;;-0.03;84.68;99698.47;5040682;28;20232;-79
2021/01/30 09:36:32;;;;;;;11.33;7.77;;;;;;;-0.01;84.63;99701.88;5041614;28;20211;-78
2021/01/30 09:38:59;;;;;;;12.47;8.03;;;;;;;-0.01;84.44;99694.03;5045233;28;20211;-77
2021/01/30 09:41:28;;;;;;;11.83;8.00;;;;;;;0.00;84.41;99701.81;5043920;28;20248;-79
2021/01/30 09:44:07;;;;;;;12.50;8.73;;;;;;;0.06;84.48;99699.88;5042496;28;20683;-79
2021/01/30 09:46:37;;;;;;;13.00;8.93;;;;;;;0.13;84.45;99698.78;5045993;28;20210;-81
2021/01/30 09:49:10;;;;;;;13.10;8.33;;;;;;;0.18;84.31;99700.28;5039805;28;20201;-80
2021/01/30 09:51:42;;;;;;;13.57;9.27;;;;;;;0.22;84.51;99703.66;5045353;28;20193;-79
2021/01/30 09:54:12;;;;;;;12.43;8.80;;;;;;;0.24;84.51;99704.47;5045950;28;20212;-80
2021/01/30 09:56:39;;;;;;;13.60;9.03;;;;;;;0.26;84.55;99710.50;5046745;28;20233;-79
2021/01/30 09:59:12;;;;;;;12.83;9.17;;;;;;;0.27;84.25;99706.97;5046003;28;20209;-79
2021/01/30 10:01:41;;;;;;;13.97;9.53;;;;;;;0.28;84.25;99708.69;5048308;28;20664;-79
2021/01/30 10:04:15;;;;;;;14.83;10.43;;;;;;;0.29;84.17;99708.63;5045006;28;20218;-80
2021/01/30 10:06:41;;;;;;;15.90;10.57;;;;;;;0.31;84.04;99706.81;5051252;28;20569;-78
2021/01/30 10:09:15;;;;;;;15.60;11.27;;;;;;;0.35;84.02;99712.81;5055692;28;20213;-79
2021/01/30 10:11:44;;;;;;;14.67;10.07;;;;;;;0.36;84.02;99709.25;5060098;28;20854;-78
2021/01/30 10:14:15;;;;;;;13.67;10.13;;;;;;;0.36;84.44;99714.47;5054739;28;20259;-79
2021/01/30 10:16:43;;;;;;;16.13;10.80;;;;;;;0.36;83.91;99716.28;5071351;28;20236;-78
2021/01/30 10:19:20;;;;;;;17.23;11.30;;;;;;;0.36;83.98;99718.88;5059419;28;20212;-79
2021/01/30 10:21:47;;;;;;;15.73;10.73;;;;;;;0.40;83.91;99720.47;5044938;28;20314;-80
2021/01/30 10:24:17;;;;;;;14.27;9.77;;;;;;;0.42;83.89;99716.03;5045886;28;20205;-80
2021/01/30 10:26:43;;;;;;;16.13;10.77;;;;;;;0.43;83.92;99712.50;5054093;28;20201;-79
2021/01/30 10:29:12;;;;;;;15.87;10.50;;;;;;;0.43;83.48;99705.50;5044532;28;20206;-79
2021/01/30 10:31:42;;;;;;;15.50;10.37;;;;;;;0.46;84.00;99713.25;5052448;28;20656;-81
2021/01/30 10:34:18;;;;;;;14.90;9.97;;;;;;;0.49;83.64;99702.66;5053998;28;20252;-82
2021/01/30 10:36:57;;;;;;;17.43;9.60;;;;;;;0.51;83.86;99692.97;5059245;28;20220;-82
2021/01/30 10:39:24;;;;;;;14.10;9.87;;;;;;;0.51;83.66;99699.97;5050609;28;20206;-80
2021/01/30 10:41:52;;;;;;;13.73;9.20;;;;;;;0.51;83.70;99706.06;5056986;28;20624;-79
2021/01/30 10:44:27;;;;;;;13.10;9.30;;;;;;;0.51;83.57;99702.59;5051871;28;20797;-81
2021/01/30 10:46:59;;;;;;;13.40;8.47;;;;;;;0.49;83.28;99700.03;5052481;28;20197;-79
2021/01/30 10:49:30;;;;;;;15.80;9.67;;;;;;;0.47;83.33;99699.25;5051823;28;20204;-78
2021/01/30 10:51:58;;;;;;;13.00;8.93;;;;;;;0.49;83.39;99697.41;5059581;28;20227;-81
2021/01/30 10:54:27;;;;;;;12.90;8.77;;;;;;;0.50;83.41;99698.28;5046277;28;20653;-79
2021/01/30 10:57:27;;;;;;;14.57;9.73;;;;;;;0.48;83.21;99698.31;5050357;28;20640;-79
2021/01/30 10:59:57;;;;;;;11.73;8.00;;;;;;;0.47;83.28;99696.63;5053632;28;20209;-82
2021/01/30 11:02:49;;;;;;;14.20;8.57;;;;;;;0.46;83.21;99689.66;5045987;28;20222;-81
2021/01/30 11:05:30;;;;;;;12.97;8.53;;;;;;;0.47;83.09;99695.75;5048125;28;20702;-78
2021/01/30 11:08:01;;;;;;;12.17;8.67;;;;;;;0.47;83.15;99688.75;5051713;28;20205;-79
2021/01/30 11:10:35;;;;;;;14.30;9.03;;;;;;;0.49;83.14;99684.31;5050352;28;20203;-79
2021/01/30 11:13:16;;;;;;;12.60;9.07;;;;;;;0.51;83.28;99677.25;5048861;28;20234;-78
2021/01/30 11:15:45;;;;;;;12.90;8.77;;;;;;;0.54;83.10;99679.75;5055230;28;20218;-78
2021/01/30 11:18:15;;;;;;;13.23;8.80;;;;;;;0.56;83.12;99674.44;5050551;28;20226;-79
2021/01/30 11:20:49;;;;;;;14.00;9.00;;;;;;;0.59;83.23;99685.66;5049101;28;20210;-78
2021/01/30 11:23:35;;;;;;;11.63;7.90;;;;;;;0.61;83.06;99685.59;5045973;28;20214;-78
2021/01/30 11:26:11;;;;;;;12.77;8.40;;;;;;;0.63;83.17;99682.03;5045388;28;20209;-78
2021/01/30 11:28:37;;;;;;;9.10;6.73;;;;;;;0.60;82.98;99687.38;5048378;28;20205;-79
2021/01/30 11:31:04;;;;;;;11.20;7.40;;;;;;;0.57;82.60;99684.88;5040070;28;20285;-80
2021/01/30 11:33:32;;;;;;;11.97;7.10;;;;;;;0.55;82.76;99681.44;5042398;28;20218;-79
2021/01/30 11:35:59;;;;;;;10.30;7.20;;;;;;;0.56;82.45;99679.69;5044205;28;20206;-78
2021/01/30 11:38:27;;;;;;;10.50;7.37;;;;;;;0.61;82.74;99680.38;5040155;28;20209;-79
2021/01/30 11:40:57;;;;;;;12.03;7.77;;;;;;;0.65;82.67;99680.19;5048319;28;20213;-79
2021/01/30 11:43:25;;;;;;;10.40;7.37;;;;;;;0.66;82.63;99670.56;5046368;28;20238;-81
2021/01/30 11:45:52;;;;;;;12.13;7.80;;;;;;;0.67;82.44;99672.28;5052867;28;20244;-78
2021/01/30 11:48:20;;;;;;;11.27;7.97;;;;;;;0.68;82.52;99674.84;5039261;28;20195;-79
2021/01/30 11:50:46;;;;;;;8.17;6.30;;;;;;;0.69;82.31;99671.31;5045076;28;21064;-81